createdAt,value
2019-01-22T00:04:10.402Z,84.80
2019-01-22T00:09:13.999Z,76.87
2019-01-22T00:14:17.608Z,74.83
2019-01-22T00:19:21.230Z,70.97
2019-01-22T00:24:24.844Z,72.77
2019-01-22T00:29:28.544Z,76.87
2019-01-22T00:34:32.142Z,84.43
2019-01-22T00:39:36.169Z,69.97
2019-01-22T00:44:39.775Z,85.53
2019-01-22T00:49:43.455Z,69.20
2019-01-22T00:54:47.327Z,75.40
2019-01-22T00:59:50.923Z,82.47
2019-01-22T01:04:54.610Z,74.40
2019-01-22T01:09:58.223Z,80.53
2019-01-22T01:15:02.126Z,78.00
2019-01-22T01:20:14.371Z,84.20
2019-01-22T01:25:20.409Z,75.33
2019-01-22T01:30:25.053Z,80.43
2019-01-22T01:35:28.951Z,77.90
2019-01-22T01:40:32.578Z,76.30
2019-01-22T01:45:36.198Z,78.80
2019-01-22T01:50:39.799Z,71.00
2019-01-22T01:55:43.407Z,78.27
2019-01-22T02:00:47.032Z,79.07
2019-01-22T02:05:50.655Z,78.37
2019-01-22T02:10:54.278Z,82.60
2019-01-22T02:16:03.926Z,81.97
2019-01-22T02:21:31.731Z,82.40
2019-01-22T02:26:38.420Z,78.07
2019-01-22T02:32:02.620Z,73.73
2019-01-22T02:37:30.436Z,82.77
2019-01-22T02:42:54.778Z,74.30
2019-01-22T02:48:12.726Z,80.10
2019-01-22T02:53:21.838Z,81.50
2019-01-22T02:58:49.159Z,70.63
2019-01-22T03:04:15.567Z,87.93
2019-01-22T03:09:25.224Z,85.57
2019-01-22T03:15:05.338Z,88.90
2019-01-22T03:20:24.243Z,83.33
2019-01-22T03:25:33.768Z,75.23
2019-01-22T03:30:46.409Z,75.87
2019-01-22T03:36:01.843Z,74.27
2019-01-22T03:41:23.759Z,81.87
2019-01-22T03:46:46.532Z,83.33
2019-01-22T03:51:53.210Z,72.70
2019-01-22T03:57:08.911Z,76.83
2019-01-22T04:02:12.658Z,76.20
2019-01-22T04:07:16.390Z,76.07
2019-01-22T04:12:20.450Z,70.80
2019-01-22T04:17:25.598Z,77.40
2019-01-22T04:22:32.221Z,78.30
2019-01-22T04:27:41.791Z,73.73
2019-01-22T04:33:11.346Z,79.87
2019-01-22T04:38:20.589Z,79.77
2019-01-22T04:43:43.548Z,75.57
2019-01-22T04:49:06.741Z,75.17
2019-01-22T04:54:25.322Z,74.03
2019-01-22T04:59:51.442Z,77.73
2019-01-22T05:04:58.122Z,85.43
2019-01-22T05:10:16.555Z,85.43
2019-01-22T05:15:49.028Z,90.80
2019-01-22T05:21:22.720Z,79.13
2019-01-22T05:26:56.587Z,79.40
2019-01-22T05:32:17.580Z,82.13
2019-01-22T05:37:26.969Z,75.97
2019-01-22T05:42:52.004Z,79.97
2019-01-22T05:48:01.366Z,83.87
2019-01-22T05:53:22.955Z,74.93
2019-01-22T05:58:52.174Z,69.87
2019-01-22T06:04:16.555Z,74.83
2019-01-22T06:09:35.116Z,85.93
2019-01-22T06:14:56.623Z,82.57
2019-01-22T06:20:15.123Z,81.07
2019-01-22T06:25:33.861Z,87.33
2019-01-22T06:30:59.904Z,78.20
2019-01-22T06:36:12.473Z,85.63
2019-01-22T06:41:28.155Z,80.73
2019-01-22T06:46:37.813Z,77.43
2019-01-22T06:51:47.310Z,75.20
2019-01-22T06:57:12.090Z,81.80
2019-01-22T07:02:30.654Z,83.37
2019-01-22T07:08:03.059Z,83.67
2019-01-22T07:13:36.891Z,80.83
2019-01-22T07:18:49.239Z,81.27
2019-01-22T07:23:55.914Z,79.33
2019-01-22T07:29:25.054Z,88.50
2019-01-22T07:34:37.584Z,76.90
2019-01-22T07:39:53.539Z,75.30
2019-01-22T07:45:02.847Z,93.83
2019-01-22T07:50:15.572Z,93.80
2019-01-22T07:55:28.200Z,78.40
2019-01-22T08:00:40.593Z,79.13
2019-01-22T08:05:48.918Z,82.37
2019-01-22T08:11:12.154Z,75.17
2019-01-22T08:16:30.137Z,73.70
2019-01-22T08:21:45.790Z,74.47
2019-01-22T08:27:13.882Z,76.50
2019-01-22T08:32:55.470Z,65.33
2019-01-22T08:38:23.487Z,78.77
2019-01-22T08:43:38.776Z,60.17
2019-01-22T08:49:00.662Z,67.20
2019-01-22T08:54:13.079Z,73.80
2019-01-22T08:59:25.707Z,64.17
2019-01-22T09:04:32.657Z,67.90
2019-01-22T09:09:51.199Z,58.90
2019-01-22T09:15:17.606Z,64.17
2019-01-22T09:20:30.067Z,64.03
2019-01-22T09:25:42.357Z,79.23
2019-01-22T09:30:55.009Z,65.17
2019-01-22T09:36:19.640Z,60.47
2019-01-22T09:41:23.532Z,75.53
2019-01-22T09:46:27.160Z,81.03
2019-01-22T09:51:30.829Z,65.40
2019-01-22T09:56:34.446Z,67.20
2019-01-22T10:01:38.090Z,57.73
2019-01-22T10:06:41.699Z,60.90
2019-01-22T10:11:45.318Z,67.73
2019-01-22T10:16:49.012Z,54.97
2019-01-22T10:21:52.695Z,57.73
2019-01-22T10:26:56.322Z,60.47
2019-01-22T10:31:59.950Z,46.00
2019-01-22T10:37:03.648Z,55.93
2019-01-22T10:42:07.589Z,52.83
2019-01-22T10:47:11.212Z,52.27
2019-01-22T10:52:14.833Z,64.80
2019-01-22T10:57:18.421Z,60.33
2019-01-22T11:02:22.221Z,62.53
2019-01-22T11:07:25.915Z,62.07
2019-01-22T11:12:29.523Z,63.33
2019-01-22T11:17:33.140Z,46.87
2019-01-22T11:22:38.362Z,52.87
2019-01-22T11:27:41.975Z,56.17
2019-01-22T11:32:45.605Z,58.27
2019-01-22T11:37:49.239Z,49.40
2019-01-22T11:42:52.899Z,51.70
2019-01-22T11:47:56.565Z,52.20
2019-01-22T11:53:00.247Z,50.50
2019-01-22T11:58:04.398Z,50.40
2019-01-22T12:03:08.287Z,50.33
2019-01-22T12:08:11.971Z,57.03
2019-01-22T12:13:15.656Z,54.90
2019-01-22T12:18:19.543Z,45.77
2019-01-22T12:23:23.244Z,56.53
2019-01-22T12:28:26.871Z,57.30
2019-01-22T12:33:30.485Z,55.13
2019-01-22T12:38:34.127Z,47.10
2019-01-22T12:43:37.762Z,52.63
2019-01-22T12:48:41.376Z,51.67
2019-01-22T12:53:45.900Z,50.37
2019-01-22T12:58:49.483Z,48.13
2019-01-22T13:03:53.120Z,52.27
2019-01-22T13:08:56.731Z,48.03
2019-01-22T13:14:00.365Z,47.07
2019-01-22T13:19:04.371Z,51.00
2019-01-22T13:24:08.146Z,47.67
2019-01-22T13:29:11.767Z,53.47
2019-01-22T13:34:15.389Z,54.03
2019-01-22T13:39:19.081Z,49.57
2019-01-22T13:44:23.003Z,49.43
2019-01-22T13:49:26.607Z,45.77
2019-01-22T13:54:30.251Z,48.37
2019-01-22T13:59:33.893Z,48.80
2019-01-22T14:04:37.536Z,49.60
2019-01-22T14:09:41.147Z,51.97
2019-01-22T14:14:44.767Z,55.07
2019-01-22T14:19:48.411Z,50.47
2019-01-22T14:24:52.039Z,63.53
2019-01-22T14:29:55.656Z,57.50
2019-01-22T14:34:59.351Z,52.43
2019-01-22T14:40:03.079Z,47.20
2019-01-22T14:45:10.199Z,52.80
2019-01-22T14:50:19.385Z,57.40
2019-01-22T14:55:22.986Z,48.03
2019-01-22T15:00:28.694Z,56.93
2019-01-22T15:05:32.485Z,55.10
2019-01-22T15:10:36.155Z,51.83
2019-01-22T15:15:39.774Z,60.73
2019-01-22T15:20:43.484Z,58.33
2019-01-22T15:25:48.263Z,54.03
2019-01-22T15:30:51.880Z,82.83
2019-01-22T15:35:55.489Z,68.97
2019-01-22T15:40:59.274Z,57.53
2019-01-22T15:46:02.923Z,53.80
2019-01-22T15:51:06.606Z,52.70
2019-01-22T15:56:10.302Z,61.60
2019-01-22T16:01:13.964Z,57.40
2019-01-22T16:06:17.874Z,52.57
2019-01-22T16:11:21.524Z,57.40
2019-01-22T16:16:25.302Z,64.17
2019-01-22T16:21:29.264Z,49.07
2019-01-22T16:26:33.200Z,56.23
2019-01-22T16:31:36.881Z,61.43
2019-01-22T16:36:40.511Z,60.30
2019-01-22T16:41:44.152Z,108.27
2019-01-22T16:46:48.093Z,68.10
2019-01-22T16:51:51.790Z,51.00
2019-01-22T16:57:00.467Z,54.97
2019-01-22T17:02:00.679Z,58.00
2019-01-22T17:07:04.391Z,59.97
2019-01-22T17:12:07.990Z,60.23
2019-01-22T17:17:11.586Z,61.07
2019-01-22T17:22:15.204Z,70.23
2019-01-22T17:27:18.889Z,62.10
2019-01-22T17:32:24.247Z,65.43
2019-01-22T17:37:27.904Z,91.90
2019-01-22T17:42:31.525Z,63.47
2019-01-22T17:47:35.147Z,57.87
2019-01-22T17:52:38.797Z,65.80
2019-01-22T17:57:42.605Z,65.40
2019-01-22T18:02:46.305Z,58.83
2019-01-22T18:07:49.994Z,61.63
2019-01-22T18:12:53.697Z,58.53
2019-01-22T18:17:57.529Z,61.20
2019-01-22T18:23:01.142Z,61.40
2019-01-22T18:28:05.096Z,64.27
2019-01-22T18:33:08.741Z,67.23
2019-01-22T18:38:12.411Z,61.00
2019-01-22T18:43:16.124Z,68.40
2019-01-22T18:48:19.778Z,63.47
2019-01-22T18:53:23.427Z,62.57
2019-01-22T18:58:27.099Z,69.77
2019-01-22T19:03:30.726Z,62.00
2019-01-22T19:08:34.378Z,70.43
2019-01-22T19:13:37.975Z,64.03
2019-01-22T19:18:41.651Z,73.20
2019-01-22T19:23:45.304Z,73.87
2019-01-22T19:28:49.284Z,65.40
2019-01-22T19:33:52.912Z,65.40
2019-01-22T19:38:56.526Z,70.03
2019-01-22T19:44:00.176Z,73.00
2019-01-22T19:49:03.863Z,66.97
2019-01-22T19:54:07.534Z,69.03
2019-01-22T19:59:11.187Z,71.77
2019-01-22T20:04:14.838Z,74.10
2019-01-22T20:09:25.046Z,64.67
2019-01-22T20:14:28.659Z,70.30
2019-01-22T20:19:32.311Z,73.73
2019-01-22T20:24:35.929Z,65.03
2019-01-22T20:29:39.537Z,71.40
2019-01-22T20:34:43.193Z,73.13
2019-01-22T20:39:46.855Z,71.67
2019-01-22T20:44:50.552Z,68.73
2019-01-22T20:49:54.156Z,65.80
2019-01-22T20:54:57.743Z,66.33
2019-01-22T21:00:01.370Z,75.03
2019-01-22T21:05:08.062Z,62.27
2019-01-22T21:10:26.582Z,69.00
2019-01-22T21:15:30.375Z,68.47
2019-01-22T21:20:34.167Z,72.30
2019-01-22T21:25:37.819Z,63.90
2019-01-22T21:30:41.492Z,67.40
2019-01-22T21:35:45.172Z,74.23
2019-01-22T21:40:48.770Z,70.83
2019-01-22T21:45:52.359Z,68.03
2019-01-22T21:50:56.342Z,65.10
2019-01-22T21:55:59.985Z,59.47
2019-01-22T22:01:03.674Z,66.13
2019-01-22T22:06:07.323Z,64.47
2019-01-22T22:11:11.345Z,60.13
2019-01-22T22:16:14.968Z,62.47
2019-01-22T22:21:18.578Z,72.83
2019-01-22T22:26:22.188Z,68.20
2019-01-22T22:31:25.814Z,69.90
2019-01-22T22:36:29.425Z,74.13
2019-01-22T22:41:33.042Z,66.43
2019-01-22T22:46:36.654Z,62.93
2019-01-22T22:51:40.446Z,67.90
2019-01-22T22:56:44.071Z,76.67
2019-01-22T23:01:47.837Z,66.03
2019-01-22T23:06:51.495Z,71.37
2019-01-22T23:11:55.097Z,82.03
2019-01-22T23:16:58.692Z,86.13
2019-01-22T23:22:02.374Z,78.90
2019-01-22T23:27:05.965Z,83.13
2019-01-22T23:32:09.638Z,79.77
2019-01-22T23:37:13.260Z,77.77
2019-01-22T23:42:16.860Z,81.40
2019-01-22T23:47:20.469Z,67.70
2019-01-22T23:52:24.066Z,74.70
2019-01-22T23:57:27.657Z,76.23
